createdAt,value
2023-03-08T00:00:16.464Z,3.92
2023-03-08T00:01:22.647Z,4.10
2023-03-08T00:02:25.032Z,5.03
2023-03-08T00:03:27.860Z,5.82
2023-03-08T00:04:30.254Z,4.15
2023-03-08T00:05:33.140Z,4.00
2023-03-08T00:06:35.819Z,5.47
2023-03-08T00:07:38.485Z,4.07
2023-03-08T00:08:41.029Z,4.90
2023-03-08T00:09:43.461Z,5.30
2023-03-08T00:10:45.926Z,5.90
2023-03-08T00:11:48.675Z,10.15
2023-03-08T00:12:51.022Z,4.57
2023-03-08T00:13:53.758Z,5.15
2023-03-08T00:14:56.092Z,3.83
2023-03-08T00:16:03.074Z,5.18
2023-03-08T00:17:05.801Z,4.95
2023-03-08T00:18:08.086Z,3.13
2023-03-08T00:19:10.378Z,2.75
2023-03-08T00:20:13.694Z,5.53
2023-03-08T00:21:18.870Z,5.38
2023-03-08T00:22:21.415Z,4.55
2023-03-08T00:23:23.785Z,4.03
2023-03-08T00:24:26.212Z,5.10
2023-03-08T00:25:28.469Z,3.75
2023-03-08T00:26:30.806Z,4.38
2023-03-08T00:27:33.238Z,4.70
2023-03-08T00:28:36.146Z,4.22
2023-03-08T00:29:38.506Z,4.63
2023-03-08T00:30:40.756Z,4.45
2023-03-08T00:31:43.115Z,5.15
2023-03-08T00:32:45.825Z,5.32
2023-03-08T00:33:52.016Z,4.53
2023-03-08T00:34:54.360Z,4.45
2023-03-08T00:36:09.673Z,4.97
2023-03-08T00:37:14.254Z,6.95
2023-03-08T00:38:16.801Z,4.63
2023-03-08T00:39:20.308Z,4.95
2023-03-08T00:40:22.588Z,4.70
2023-03-08T00:41:25.087Z,4.47
2023-03-08T00:42:27.586Z,6.05
2023-03-08T00:43:30.864Z,4.35
2023-03-08T00:44:33.237Z,4.45
2023-03-08T00:45:35.478Z,5.25
2023-03-08T00:46:37.857Z,4.30
2023-03-08T00:47:41.065Z,3.45
2023-03-08T00:48:43.764Z,4.00
2023-03-08T00:49:46.299Z,4.57
2023-03-08T00:50:50.316Z,4.88
2023-03-08T00:51:52.675Z,4.97
2023-03-08T00:52:54.956Z,4.60
2023-03-08T00:53:57.316Z,3.80
2023-03-08T00:54:59.682Z,4.18
2023-03-08T00:56:01.991Z,4.32
2023-03-08T00:57:06.430Z,6.70
2023-03-08T00:58:08.858Z,7.25
2023-03-08T00:59:11.529Z,3.13
2023-03-08T01:00:15.972Z,4.07
2023-03-08T01:01:19.242Z,3.92
2023-03-08T01:02:25.453Z,2.90
2023-03-08T01:03:28.064Z,4.75
2023-03-08T01:04:33.661Z,4.90
2023-03-08T01:05:47.952Z,4.30
2023-03-08T01:06:50.484Z,4.40
2023-03-08T01:07:52.849Z,4.53
2023-03-08T01:08:55.195Z,4.40
2023-03-08T01:09:57.748Z,3.97
2023-03-08T01:11:00.786Z,5.53
2023-03-08T01:12:03.503Z,7.80
2023-03-08T01:13:07.937Z,4.28
2023-03-08T01:14:10.360Z,5.40
2023-03-08T01:15:12.969Z,4.25
2023-03-08T01:16:24.447Z,4.90
2023-03-08T01:17:26.828Z,3.95
2023-03-08T01:18:29.294Z,4.93
2023-03-08T01:19:32.834Z,3.90
2023-03-08T01:20:35.501Z,4.78
2023-03-08T01:21:38.781Z,5.68
2023-03-08T01:22:41.109Z,4.18
2023-03-08T01:23:43.427Z,5.32
2023-03-08T01:24:47.330Z,4.55
2023-03-08T01:25:49.928Z,4.47
2023-03-08T01:26:55.711Z,3.38
2023-03-08T01:27:58.037Z,5.93
2023-03-08T01:29:00.452Z,4.00
2023-03-08T01:30:03.782Z,7.07
2023-03-08T01:31:20.628Z,3.45
2023-03-08T01:32:23.047Z,2.95
2023-03-08T01:33:25.536Z,4.93
2023-03-08T01:34:27.846Z,4.15
2023-03-08T01:35:30.562Z,3.72
2023-03-08T01:36:32.959Z,3.65
2023-03-08T01:37:35.705Z,5.40
2023-03-08T01:38:38.686Z,4.53
2023-03-08T01:39:41.281Z,4.40
2023-03-08T01:40:43.820Z,3.55
2023-03-08T01:41:46.413Z,3.38
2023-03-08T01:42:48.966Z,5.47
2023-03-08T01:43:51.871Z,4.57
2023-03-08T01:44:58.870Z,5.50
2023-03-08T01:46:23.740Z,5.53
2023-03-08T01:47:32.717Z,3.55
2023-03-08T01:49:14.782Z,3.78
2023-03-08T01:50:17.485Z,4.65
2023-03-08T01:51:26.275Z,5.00
2023-03-08T01:52:34.908Z,4.35
2023-03-08T01:53:39.761Z,4.28
2023-03-08T01:55:04.233Z,3.83
2023-03-08T01:56:12.552Z,4.38
2023-03-08T01:57:23.192Z,4.15
2023-03-08T01:58:26.287Z,4.32
2023-03-08T01:59:31.848Z,3.38
2023-03-08T02:00:34.639Z,3.58
2023-03-08T02:01:37.249Z,2.97
2023-03-08T02:02:48.391Z,4.13
2023-03-08T02:03:51.671Z,3.00
2023-03-08T02:04:55.634Z,3.38
2023-03-08T02:05:58.178Z,3.33
2023-03-08T02:07:00.638Z,6.25
2023-03-08T02:08:03.143Z,3.15
2023-03-08T02:09:09.568Z,4.43
2023-03-08T02:10:13.129Z,3.30
2023-03-08T02:11:17.680Z,4.70
2023-03-08T02:12:21.452Z,4.25
2023-03-08T02:13:24.864Z,2.42
2023-03-08T02:14:28.961Z,2.92
2023-03-08T02:15:31.490Z,4.65
2023-03-08T02:16:34.151Z,3.58
2023-03-08T02:17:41.583Z,6.00
2023-03-08T02:18:58.301Z,3.17
2023-03-08T02:20:18.215Z,3.08
2023-03-08T02:21:20.758Z,3.42
2023-03-08T02:22:23.648Z,3.85
2023-03-08T02:23:26.521Z,3.60
2023-03-08T02:24:28.867Z,5.93
2023-03-08T02:25:31.433Z,3.42
2023-03-08T02:26:35.971Z,3.17
2023-03-08T02:27:39.805Z,4.57
2023-03-08T02:28:42.443Z,4.78
2023-03-08T02:29:44.923Z,3.97
2023-03-08T02:30:47.376Z,3.53
2023-03-08T02:31:50.764Z,5.10
2023-03-08T02:32:53.205Z,3.33
2023-03-08T02:33:56.001Z,3.33
2023-03-08T02:35:02.532Z,3.33
2023-03-08T02:36:08.060Z,4.32
2023-03-08T02:37:10.444Z,4.28
2023-03-08T02:38:15.164Z,3.50
2023-03-08T02:39:17.485Z,4.10
2023-03-08T02:40:20.065Z,2.55
2023-03-08T02:41:22.372Z,2.67
2023-03-08T02:42:25.217Z,3.03
2023-03-08T02:43:27.717Z,3.42
2023-03-08T02:44:30.106Z,3.28
2023-03-08T02:45:33.989Z,2.60
2023-03-08T02:46:37.197Z,2.70
2023-03-08T02:47:39.876Z,4.20
2023-03-08T02:48:42.337Z,3.63
2023-03-08T02:49:44.726Z,2.85
2023-03-08T02:50:47.157Z,3.25
2023-03-08T02:51:49.454Z,3.53
2023-03-08T02:52:51.898Z,4.35
2023-03-08T02:53:55.248Z,6.20
2023-03-08T02:54:57.702Z,3.50
2023-03-08T02:56:01.102Z,2.60
2023-03-08T02:57:04.134Z,2.75
2023-03-08T02:58:08.975Z,2.90
2023-03-08T02:59:11.423Z,2.10
2023-03-08T03:00:14.130Z,6.95
2023-03-08T03:01:16.555Z,4.32
2023-03-08T03:02:18.929Z,3.30
2023-03-08T03:03:21.240Z,2.75
2023-03-08T03:04:30.206Z,2.75
2023-03-08T03:05:32.677Z,5.10
2023-03-08T03:06:37.857Z,26.40
2023-03-08T03:07:42.745Z,101.47
2023-03-08T03:08:50.574Z,47.92
2023-03-08T03:09:53.817Z,23.30
2023-03-08T03:10:56.374Z,18.30
2023-03-08T03:11:58.905Z,15.55
2023-03-08T03:13:05.580Z,14.25
2023-03-08T03:14:08.632Z,9.85
2023-03-08T03:15:15.692Z,13.63
2023-03-08T03:16:20.171Z,8.85
2023-03-08T03:17:22.493Z,10.00
2023-03-08T03:18:25.072Z,7.22
2023-03-08T03:19:27.623Z,8.82
2023-03-08T03:20:29.996Z,8.07
2023-03-08T03:21:32.441Z,8.10
2023-03-08T03:22:36.171Z,10.10
2023-03-08T03:23:40.960Z,6.82
2023-03-08T03:24:45.553Z,8.80
2023-03-08T03:25:48.163Z,6.53
2023-03-08T03:26:53.499Z,7.50
2023-03-08T03:27:58.106Z,6.80
2023-03-08T03:29:03.324Z,8.93
2023-03-08T03:30:10.454Z,4.97
2023-03-08T03:31:15.981Z,5.22
2023-03-08T03:32:18.727Z,5.82
2023-03-08T03:33:21.107Z,7.03
2023-03-08T03:34:24.389Z,5.70
2023-03-08T03:35:27.422Z,4.97
2023-03-08T03:36:30.019Z,6.07
2023-03-08T03:37:35.266Z,4.82
2023-03-08T03:38:37.891Z,8.32
2023-03-08T03:39:40.438Z,6.68
2023-03-08T03:40:45.412Z,4.95
2023-03-08T03:41:48.196Z,4.90
2023-03-08T03:42:51.165Z,4.30
2023-03-08T03:43:53.997Z,5.10
2023-03-08T03:44:56.331Z,6.97
2023-03-08T03:46:01.568Z,8.23
2023-03-08T03:47:04.436Z,7.38
2023-03-08T03:48:06.774Z,11.15
2023-03-08T03:49:09.190Z,8.90
2023-03-08T03:50:15.009Z,11.25
2023-03-08T03:51:29.491Z,8.77
2023-03-08T03:52:43.242Z,11.07
2023-03-08T03:53:46.730Z,15.95
2023-03-08T03:54:50.276Z,12.60
2023-03-08T03:55:53.225Z,12.43
2023-03-08T03:56:58.112Z,9.15
2023-03-08T03:58:03.565Z,10.85
2023-03-08T03:59:07.070Z,10.05
2023-03-08T04:00:10.487Z,10.10
2023-03-08T04:01:28.509Z,10.20
2023-03-08T04:02:37.223Z,9.65
2023-03-08T04:03:39.918Z,9.35
2023-03-08T04:04:42.595Z,12.25
2023-03-08T04:05:47.560Z,8.90
2023-03-08T04:06:50.495Z,8.93
2023-03-08T04:07:56.524Z,7.47
2023-03-08T04:09:13.070Z,5.22
2023-03-08T04:10:15.581Z,5.35
2023-03-08T04:11:21.800Z,8.55
2023-03-08T04:12:24.593Z,13.07
2023-03-08T04:13:26.923Z,15.02
2023-03-08T04:14:34.289Z,8.95
2023-03-08T04:15:36.720Z,9.93
2023-03-08T04:16:43.037Z,8.25
2023-03-08T04:17:52.970Z,12.07
2023-03-08T04:19:02.835Z,7.95
2023-03-08T04:20:07.370Z,8.23
2023-03-08T04:21:14.581Z,7.95
2023-03-08T04:22:16.955Z,7.80
2023-03-08T04:24:00.506Z,8.15
2023-03-08T04:25:03.805Z,7.90
2023-03-08T04:26:17.631Z,6.13
2023-03-08T04:27:20.480Z,8.10
2023-03-08T04:28:22.889Z,7.22
2023-03-08T04:29:25.400Z,9.65
2023-03-08T04:30:29.739Z,6.55
2023-03-08T04:31:34.929Z,6.88
2023-03-08T04:32:40.586Z,7.10
2023-03-08T04:33:43.578Z,6.68
2023-03-08T04:34:46.299Z,7.32
2023-03-08T04:35:52.082Z,8.48
2023-03-08T04:36:57.477Z,7.25
2023-03-08T04:38:00.153Z,5.50
2023-03-08T04:39:03.677Z,7.20
2023-03-08T04:40:09.391Z,8.63
2023-03-08T04:41:18.306Z,6.20
2023-03-08T04:42:28.593Z,9.65
2023-03-08T04:43:34.142Z,5.75
2023-03-08T04:44:37.388Z,5.00
2023-03-08T04:45:41.099Z,8.05
2023-03-08T04:46:47.424Z,6.43
2023-03-08T04:47:56.089Z,6.30
2023-03-08T04:48:58.551Z,8.02
2023-03-08T04:50:04.987Z,5.53
2023-03-08T04:51:09.450Z,7.18
2023-03-08T04:52:11.952Z,8.45
2023-03-08T04:53:15.216Z,6.55
2023-03-08T04:54:18.075Z,7.03
2023-03-08T04:55:25.871Z,21.10
2023-03-08T04:56:28.323Z,24.75
2023-03-08T04:57:30.829Z,173.57
2023-03-08T04:58:37.077Z,164.13
2023-03-08T04:59:39.989Z,117.38
2023-03-08T05:00:42.867Z,106.40
2023-03-08T05:01:45.741Z,99.28
2023-03-08T05:02:48.055Z,77.07
2023-03-08T05:03:53.917Z,64.38
2023-03-08T05:05:01.265Z,53.67
2023-03-08T05:06:04.030Z,33.42
2023-03-08T05:07:06.486Z,18.13
2023-03-08T05:08:10.957Z,15.55
2023-03-08T05:09:13.539Z,15.88
2023-03-08T05:10:17.744Z,12.40
2023-03-08T05:11:23.440Z,15.45
2023-03-08T05:12:25.819Z,13.90
2023-03-08T05:13:38.559Z,17.23
2023-03-08T05:14:42.715Z,12.98
2023-03-08T05:15:45.519Z,10.48
2023-03-08T05:16:47.885Z,9.23
2023-03-08T05:17:51.246Z,12.38
2023-03-08T05:18:53.746Z,9.27
2023-03-08T05:19:59.502Z,8.55
2023-03-08T05:21:12.578Z,10.07
2023-03-08T05:22:15.743Z,15.20
2023-03-08T05:23:23.245Z,18.05
2023-03-08T05:24:27.177Z,16.15
2023-03-08T05:25:31.401Z,15.18
2023-03-08T05:26:34.610Z,14.85
2023-03-08T05:27:37.446Z,12.07
2023-03-08T05:28:41.992Z,13.63
2023-03-08T05:29:45.014Z,13.88
2023-03-08T05:30:47.664Z,19.05
2023-03-08T05:31:50.452Z,14.48
2023-03-08T05:32:53.812Z,12.77
2023-03-08T05:33:56.273Z,27.98
2023-03-08T05:35:12.399Z,37.95
2023-03-08T05:36:15.450Z,44.90
2023-03-08T05:37:18.784Z,63.90
2023-03-08T05:38:22.760Z,147.80
2023-03-08T05:39:25.108Z,82.32
2023-03-08T05:40:34.664Z,57.47
2023-03-08T05:41:37.277Z,56.25
2023-03-08T05:42:40.613Z,46.97
2023-03-08T05:43:43.678Z,45.90
2023-03-08T05:44:47.010Z,49.30
2023-03-08T05:46:04.582Z,39.92
2023-03-08T05:47:07.710Z,35.97
2023-03-08T05:48:11.322Z,30.85
2023-03-08T05:49:13.774Z,29.52
2023-03-08T05:50:16.415Z,37.13
2023-03-08T05:51:19.687Z,31.08
2023-03-08T05:52:22.255Z,29.25
2023-03-08T05:53:25.669Z,33.45
2023-03-08T05:54:28.281Z,32.65
2023-03-08T05:55:35.161Z,33.15
2023-03-08T05:56:38.020Z,31.38
2023-03-08T05:57:46.037Z,30.63
2023-03-08T05:58:48.876Z,27.65
2023-03-08T05:59:52.341Z,26.70
2023-03-08T06:00:57.818Z,26.52
2023-03-08T06:02:00.797Z,27.08
2023-03-08T06:04:18.595Z,27.77
2023-03-08T06:05:24.537Z,28.50
2023-03-08T06:06:30.829Z,22.95
2023-03-08T06:07:36.621Z,27.13
2023-03-08T06:08:44.648Z,22.98
2023-03-08T06:09:48.132Z,23.52
2023-03-08T06:10:53.285Z,25.98
2023-03-08T06:11:55.899Z,22.23
2023-03-08T06:12:59.355Z,27.30
2023-03-08T06:14:02.147Z,23.90
2023-03-08T06:15:08.102Z,25.00
2023-03-08T06:16:13.134Z,23.92
2023-03-08T06:17:15.762Z,21.67
2023-03-08T06:18:21.234Z,25.98
2023-03-08T06:19:23.732Z,22.42
2023-03-08T06:20:28.576Z,26.88
2023-03-08T06:21:31.578Z,22.80
2023-03-08T06:22:39.612Z,26.80
2023-03-08T06:23:43.680Z,23.70
2023-03-08T06:24:49.854Z,25.77
2023-03-08T06:25:59.196Z,22.40
2023-03-08T06:27:02.681Z,26.17
2023-03-08T06:28:05.351Z,25.60
2023-03-08T06:29:13.107Z,25.38
2023-03-08T06:30:16.190Z,24.23
2023-03-08T06:31:19.549Z,23.75
2023-03-08T06:32:22.831Z,21.00
2023-03-08T06:33:28.595Z,22.20
2023-03-08T06:34:32.300Z,23.67
2023-03-08T06:35:36.066Z,21.40
2023-03-08T06:36:40.472Z,19.73
2023-03-08T06:37:43.076Z,30.77
2023-03-08T06:38:46.862Z,22.95
2023-03-08T06:39:49.455Z,19.10
2023-03-08T06:40:52.205Z,21.85
2023-03-08T06:41:54.829Z,22.33
2023-03-08T06:42:57.561Z,24.33
2023-03-08T06:44:00.397Z,22.83
2023-03-08T06:45:03.838Z,19.60
2023-03-08T06:46:17.018Z,18.98
2023-03-08T06:47:22.607Z,21.23
2023-03-08T06:48:25.558Z,22.88
2023-03-08T06:49:28.407Z,21.85
2023-03-08T06:50:31.510Z,24.55
2023-03-08T06:51:34.792Z,20.33
2023-03-08T06:52:38.185Z,20.10
2023-03-08T06:53:42.471Z,21.98
2023-03-08T06:54:46.057Z,32.70
2023-03-08T06:55:48.856Z,20.73
2023-03-08T06:56:51.554Z,20.23
2023-03-08T06:57:55.774Z,21.45
2023-03-08T06:58:58.433Z,20.20
2023-03-08T07:00:01.782Z,20.65
2023-03-08T07:01:05.877Z,17.25
2023-03-08T07:02:10.495Z,17.23
2023-03-08T07:03:13.377Z,21.88
2023-03-08T07:04:18.125Z,25.70
2023-03-08T07:05:21.388Z,21.70
2023-03-08T07:06:24.194Z,22.48
2023-03-08T07:07:26.753Z,19.13
2023-03-08T07:08:29.978Z,19.70
2023-03-08T07:09:32.476Z,19.63
2023-03-08T07:10:35.231Z,21.58
2023-03-08T07:11:39.316Z,21.48
2023-03-08T07:12:43.814Z,25.52
2023-03-08T07:13:46.636Z,17.92
2023-03-08T07:14:49.195Z,17.17
2023-03-08T07:15:52.649Z,19.02
2023-03-08T07:16:55.170Z,19.27
2023-03-08T07:17:58.056Z,16.90
2023-03-08T07:19:02.336Z,19.80
2023-03-08T07:20:05.644Z,18.20
2023-03-08T07:21:10.126Z,17.92
2023-03-08T07:22:12.975Z,17.90
2023-03-08T07:23:15.422Z,18.83
2023-03-08T07:24:17.901Z,18.80
2023-03-08T07:25:21.162Z,19.38
2023-03-08T07:26:23.632Z,17.27
2023-03-08T07:27:26.161Z,18.92
2023-03-08T07:28:28.555Z,18.90
2023-03-08T07:29:31.226Z,22.25
2023-03-08T07:30:33.705Z,18.02
2023-03-08T07:31:36.203Z,21.08
2023-03-08T07:32:40.691Z,18.27
2023-03-08T07:33:43.157Z,21.90
2023-03-08T07:34:45.567Z,18.27
2023-03-08T07:35:48.125Z,19.02
2023-03-08T07:36:51.058Z,16.38
2023-03-08T07:37:53.721Z,20.85
2023-03-08T07:38:56.090Z,17.77
2023-03-08T07:39:58.474Z,18.75
2023-03-08T07:41:00.799Z,20.13
2023-03-08T07:42:03.230Z,16.95
2023-03-08T07:43:06.307Z,19.55
2023-03-08T07:44:28.578Z,27.38
2023-03-08T07:45:31.027Z,31.92
2023-03-08T07:46:33.416Z,37.85
2023-03-08T07:47:35.796Z,32.80
2023-03-08T07:48:38.079Z,32.28
2023-03-08T07:49:40.494Z,27.13
2023-03-08T07:50:42.772Z,32.95
2023-03-08T07:51:45.168Z,27.27
2023-03-08T07:52:48.292Z,29.45
2023-03-08T07:53:52.551Z,27.88
2023-03-08T07:54:55.296Z,28.02
2023-03-08T07:55:59.220Z,28.38
2023-03-08T07:57:02.143Z,29.42
2023-03-08T07:58:04.570Z,32.53
2023-03-08T07:59:06.981Z,33.45
2023-03-08T08:00:10.665Z,31.58
2023-03-08T08:01:16.010Z,32.95
2023-03-08T08:02:19.857Z,29.63
2023-03-08T08:03:22.660Z,26.83
2023-03-08T08:04:25.222Z,29.08
2023-03-08T08:05:27.668Z,24.38
2023-03-08T08:06:30.583Z,26.83
2023-03-08T08:07:33.024Z,27.17
2023-03-08T08:08:35.570Z,27.15
2023-03-08T08:09:38.084Z,27.52
2023-03-08T08:10:41.801Z,24.85
2023-03-08T08:11:44.214Z,26.17
2023-03-08T08:12:46.667Z,29.05
2023-03-08T08:13:49.431Z,26.13
2023-03-08T08:14:52.795Z,27.33
2023-03-08T08:16:02.137Z,26.90
2023-03-08T08:17:04.568Z,25.48
2023-03-08T08:18:06.952Z,20.10
2023-03-08T08:19:12.238Z,21.48
2023-03-08T08:20:14.749Z,22.05
2023-03-08T08:21:17.324Z,23.23
2023-03-08T08:22:19.755Z,22.98
2023-03-08T08:23:22.069Z,20.65
2023-03-08T08:24:25.089Z,22.40
2023-03-08T08:25:27.440Z,17.52
2023-03-08T08:26:29.819Z,21.30
2023-03-08T08:27:32.190Z,21.70
2023-03-08T08:28:35.471Z,23.25
2023-03-08T08:29:38.366Z,20.23
2023-03-08T08:30:40.668Z,24.85
2023-03-08T08:31:43.151Z,22.38
2023-03-08T08:32:45.612Z,22.33
2023-03-08T08:33:48.499Z,23.58
2023-03-08T08:34:50.974Z,20.45
2023-03-08T08:35:53.392Z,27.33
2023-03-08T08:36:55.673Z,21.25
2023-03-08T08:37:58.076Z,25.40
2023-03-08T08:39:00.539Z,24.65
2023-03-08T08:40:04.012Z,21.58
2023-03-08T08:41:08.039Z,24.17
2023-03-08T08:42:10.393Z,22.10
2023-03-08T08:43:13.714Z,24.00
2023-03-08T08:44:16.495Z,20.00
2023-03-08T08:45:18.916Z,21.70
2023-03-08T08:46:21.438Z,22.25
2023-03-08T08:47:23.831Z,21.15
2023-03-08T08:48:26.559Z,23.13
2023-03-08T08:49:28.980Z,23.90
2023-03-08T08:50:31.320Z,26.00
2023-03-08T08:51:34.008Z,21.02
2023-03-08T08:52:36.492Z,23.73
2023-03-08T08:53:38.888Z,21.17
2023-03-08T08:54:41.289Z,21.27
2023-03-08T08:55:45.504Z,20.45
2023-03-08T08:56:48.109Z,20.80
2023-03-08T08:57:50.514Z,23.48
2023-03-08T08:58:53.125Z,19.95
2023-03-08T08:59:55.521Z,20.27
2023-03-08T09:00:57.875Z,26.83
2023-03-08T09:02:00.523Z,19.50
2023-03-08T09:03:04.308Z,19.70
2023-03-08T09:04:06.733Z,19.80
2023-03-08T09:05:09.422Z,19.83
2023-03-08T09:06:12.319Z,20.30
2023-03-08T09:07:14.773Z,20.65
2023-03-08T09:08:17.964Z,18.55
2023-03-08T09:09:20.709Z,21.25
2023-03-08T09:10:23.121Z,19.02
2023-03-08T09:11:27.571Z,22.75
2023-03-08T09:12:30.278Z,18.85
2023-03-08T09:13:33.358Z,20.23
2023-03-08T09:14:35.747Z,23.42
2023-03-08T09:15:38.264Z,19.75
2023-03-08T09:16:41.348Z,20.33
2023-03-08T09:17:44.046Z,18.42
2023-03-08T09:18:46.891Z,20.48
2023-03-08T09:19:49.291Z,23.48
2023-03-08T09:20:52.027Z,25.13
2023-03-08T09:21:54.323Z,24.92
2023-03-08T09:22:56.820Z,21.15
2023-03-08T09:24:01.504Z,21.48
2023-03-08T09:25:05.497Z,22.70
2023-03-08T09:26:08.339Z,23.67
2023-03-08T09:27:10.628Z,20.23
2023-03-08T09:28:13.206Z,25.15
2023-03-08T09:29:15.639Z,18.25
2023-03-08T09:30:18.323Z,21.77
2023-03-08T09:31:20.686Z,21.30
2023-03-08T09:32:23.089Z,21.42
2023-03-08T09:33:25.576Z,16.13
2023-03-08T09:34:28.225Z,24.45
2023-03-08T09:35:30.784Z,20.98
2023-03-08T09:36:33.186Z,19.25
2023-03-08T09:37:35.751Z,21.33
2023-03-08T09:38:38.264Z,17.23
2023-03-08T09:39:40.687Z,21.02
2023-03-08T09:40:56.223Z,18.75
2023-03-08T09:42:02.182Z,18.40
2023-03-08T09:43:06.091Z,23.98
2023-03-08T09:44:45.848Z,18.08
2023-03-08T09:45:53.065Z,18.27
2023-03-08T09:47:02.320Z,18.80
2023-03-08T09:48:22.174Z,19.60
2023-03-08T09:49:30.858Z,17.63
2023-03-08T09:50:48.353Z,19.23
2023-03-08T09:51:54.946Z,16.23
2023-03-08T09:53:29.906Z,19.77
2023-03-08T09:54:35.056Z,17.40
2023-03-08T09:55:45.874Z,17.38
2023-03-08T09:56:53.193Z,19.35
2023-03-08T09:57:57.593Z,14.35
2023-03-08T09:59:07.003Z,16.88
2023-03-08T10:00:29.194Z,18.55
2023-03-08T10:02:00.330Z,18.08
2023-03-08T10:03:23.026Z,20.05
2023-03-08T10:05:06.016Z,16.65
2023-03-08T10:06:24.614Z,19.83
2023-03-08T10:07:48.370Z,18.92
2023-03-08T10:09:02.137Z,17.08
2023-03-08T10:10:32.615Z,16.17
2023-03-08T10:12:11.927Z,16.45
2023-03-08T10:13:27.750Z,16.67
2023-03-08T10:14:37.264Z,15.52
2023-03-08T10:15:47.194Z,17.67
2023-03-08T10:16:57.931Z,17.73
2023-03-08T10:18:20.588Z,16.88
2023-03-08T10:19:48.471Z,15.60
2023-03-08T10:20:51.193Z,18.13
2023-03-08T10:21:56.054Z,16.83
2023-03-08T10:23:10.298Z,14.43
2023-03-08T10:24:31.082Z,16.48
2023-03-08T10:25:34.618Z,15.68
2023-03-08T10:26:37.053Z,17.42
2023-03-08T10:27:39.471Z,14.07
2023-03-08T10:28:41.909Z,15.70
2023-03-08T10:29:56.425Z,19.83
2023-03-08T10:31:01.821Z,16.45
2023-03-08T10:32:05.094Z,15.63
2023-03-08T10:33:11.985Z,18.38
2023-03-08T10:34:25.018Z,14.93
2023-03-08T10:35:50.104Z,14.23
2023-03-08T10:36:58.439Z,17.60
2023-03-08T10:38:00.955Z,14.73
2023-03-08T10:39:08.880Z,19.38
2023-03-08T10:40:21.877Z,15.85
2023-03-08T10:41:25.688Z,16.05
2023-03-08T10:42:28.944Z,15.48
2023-03-08T10:43:36.296Z,13.05
2023-03-08T10:44:47.285Z,17.63
2023-03-08T10:46:01.785Z,15.50
2023-03-08T10:47:18.327Z,14.40
2023-03-08T10:48:21.520Z,14.60
2023-03-08T10:49:26.917Z,18.33
2023-03-08T10:50:36.434Z,14.05
2023-03-08T10:51:39.014Z,13.25
2023-03-08T10:52:42.136Z,16.20
2023-03-08T10:53:59.542Z,15.23
2023-03-08T10:55:14.343Z,15.20
2023-03-08T10:56:44.840Z,14.70
2023-03-08T10:58:01.558Z,13.57
2023-03-08T10:59:06.101Z,13.68
2023-03-08T11:00:33.613Z,15.00
2023-03-08T11:01:51.386Z,13.88
2023-03-08T11:03:04.188Z,12.95
2023-03-08T11:04:16.445Z,14.68
2023-03-08T11:05:26.660Z,13.88
2023-03-08T11:06:29.571Z,13.93
2023-03-08T11:07:33.407Z,12.48
2023-03-08T11:08:38.686Z,13.75
2023-03-08T11:09:41.144Z,13.23
2023-03-08T11:10:43.725Z,13.32
2023-03-08T11:11:46.184Z,14.43
2023-03-08T11:12:48.737Z,14.10
2023-03-08T11:13:52.911Z,13.13
2023-03-08T11:14:55.414Z,13.13
2023-03-08T11:16:26.366Z,13.80
2023-03-08T11:17:39.076Z,13.63
2023-03-08T11:19:09.080Z,13.27
2023-03-08T11:20:27.443Z,12.38
2023-03-08T11:21:43.503Z,14.50
2023-03-08T11:23:03.946Z,17.40
2023-03-08T11:24:27.339Z,13.30
2023-03-08T11:25:44.272Z,13.23
2023-03-08T11:27:02.738Z,12.40
2023-03-08T11:28:08.364Z,12.98
2023-03-08T11:29:23.438Z,14.32
2023-03-08T11:30:52.028Z,19.48
2023-03-08T11:32:12.167Z,16.23
2023-03-08T11:33:36.960Z,16.73
2023-03-08T11:34:57.107Z,15.38
2023-03-08T11:36:13.100Z,13.20
2023-03-08T11:37:29.788Z,11.90
2023-03-08T11:38:33.802Z,13.80
2023-03-08T11:39:54.860Z,16.73
2023-03-08T11:41:05.971Z,15.85
2023-03-08T11:42:27.050Z,11.90
2023-03-08T11:43:47.393Z,12.77
2023-03-08T11:44:59.974Z,13.38
2023-03-08T11:46:27.285Z,12.77
2023-03-08T11:47:34.190Z,15.65
2023-03-08T11:49:07.202Z,12.57
2023-03-08T11:50:38.032Z,13.52
2023-03-08T11:52:06.332Z,13.80
2023-03-08T11:53:18.389Z,13.70
2023-03-08T11:54:32.546Z,12.88
2023-03-08T11:56:07.189Z,12.63
2023-03-08T11:57:12.132Z,11.75
2023-03-08T11:58:20.374Z,13.30
2023-03-08T11:59:40.022Z,12.73
2023-03-08T12:00:46.424Z,15.23
2023-03-08T12:02:02.509Z,11.57
2023-03-08T12:03:14.743Z,12.25
2023-03-08T12:04:24.940Z,10.32
2023-03-08T12:05:30.736Z,12.90
2023-03-08T12:06:38.486Z,12.60
2023-03-08T12:07:52.662Z,12.43
2023-03-08T12:09:25.872Z,10.80
2023-03-08T12:10:42.959Z,14.30
2023-03-08T12:11:51.388Z,10.82
2023-03-08T12:13:12.602Z,11.55
2023-03-08T12:14:23.140Z,10.88
2023-03-08T12:15:31.383Z,17.00
2023-03-08T12:16:59.684Z,12.48
2023-03-08T12:18:17.901Z,15.20
2023-03-08T12:19:37.076Z,10.75
2023-03-08T12:20:43.849Z,11.15
2023-03-08T12:22:01.503Z,13.68
2023-03-08T12:23:20.959Z,11.02
2023-03-08T12:24:31.872Z,18.50
2023-03-08T12:25:41.471Z,11.95
2023-03-08T12:26:59.355Z,11.27
2023-03-08T12:28:28.344Z,10.50
2023-03-08T12:29:47.882Z,11.20
2023-03-08T12:31:29.933Z,11.10
2023-03-08T12:33:36.496Z,13.13
2023-03-08T12:34:41.751Z,11.63
2023-03-08T12:35:51.384Z,11.00
2023-03-08T12:36:54.346Z,10.00
2023-03-08T12:38:20.080Z,11.10
2023-03-08T12:39:32.324Z,12.27
2023-03-08T12:40:39.240Z,12.02
2023-03-08T12:41:41.756Z,13.02
2023-03-08T12:42:44.195Z,10.23
2023-03-08T12:43:46.727Z,11.05
2023-03-08T12:44:49.124Z,13.13
2023-03-08T12:45:57.132Z,10.50
2023-03-08T12:47:22.019Z,12.20
2023-03-08T12:48:29.835Z,8.38
2023-03-08T12:49:39.266Z,10.55
2023-03-08T12:50:59.719Z,12.50
2023-03-08T12:52:23.511Z,8.95
2023-03-08T12:53:55.337Z,11.60
2023-03-08T12:55:01.195Z,10.32
2023-03-08T12:56:03.613Z,10.00
2023-03-08T12:57:19.423Z,11.20
2023-03-08T12:58:22.863Z,14.95
2023-03-08T12:59:35.096Z,10.02
2023-03-08T13:00:39.213Z,12.70
2023-03-08T13:01:44.768Z,12.77
2023-03-08T13:02:47.144Z,12.00
2023-03-08T13:03:49.511Z,11.90
2023-03-08T13:05:22.162Z,9.73
2023-03-08T13:06:25.652Z,10.85
2023-03-08T13:07:37.886Z,11.52
2023-03-08T13:08:47.258Z,11.45
2023-03-08T13:09:58.948Z,10.35
2023-03-08T13:11:09.039Z,15.05
2023-03-08T13:13:02.066Z,12.90
2023-03-08T13:14:05.906Z,13.07
2023-03-08T13:15:28.531Z,11.02
2023-03-08T13:16:36.983Z,9.07
2023-03-08T13:17:44.828Z,9.60
2023-03-08T13:19:00.625Z,10.70
2023-03-08T13:20:24.204Z,12.35
2023-03-08T13:21:35.750Z,6.63
2023-03-08T13:22:49.872Z,6.80
2023-03-08T13:24:09.969Z,5.88
2023-03-08T13:25:30.386Z,4.47
2023-03-08T13:26:49.911Z,5.20
2023-03-08T13:28:02.369Z,9.52
2023-03-08T13:29:14.663Z,4.20
2023-03-08T13:30:23.678Z,4.50
2023-03-08T13:31:30.611Z,3.22
2023-03-08T13:32:33.135Z,3.50
2023-03-08T13:33:42.232Z,3.47
2023-03-08T13:34:47.525Z,5.05
2023-03-08T13:36:01.990Z,3.95
2023-03-08T13:37:04.715Z,2.92
2023-03-08T13:38:07.140Z,2.38
2023-03-08T13:39:21.543Z,3.22
2023-03-08T13:40:24.481Z,3.30
2023-03-08T13:41:47.609Z,4.05
2023-03-08T13:43:08.589Z,3.95
2023-03-08T13:44:16.948Z,2.95
2023-03-08T13:45:19.384Z,3.28
2023-03-08T13:46:23.642Z,4.22
2023-03-08T13:47:34.809Z,4.40
2023-03-08T13:48:37.303Z,2.17
2023-03-08T13:49:44.360Z,2.13
2023-03-08T13:50:50.643Z,3.20
2023-03-08T13:52:04.611Z,3.08
2023-03-08T13:53:20.309Z,6.63
2023-03-08T13:54:33.341Z,2.88
2023-03-08T13:55:42.018Z,3.28
2023-03-08T13:56:44.507Z,2.28
2023-03-08T13:57:52.471Z,1.67
2023-03-08T13:58:58.212Z,1.80
2023-03-08T14:00:04.298Z,2.60
2023-03-08T14:01:18.918Z,3.22
2023-03-08T14:02:24.652Z,2.35
2023-03-08T14:03:29.848Z,1.75
2023-03-08T14:04:35.076Z,1.90
2023-03-08T14:05:43.873Z,2.13
2023-03-08T14:06:51.507Z,3.58
2023-03-08T14:08:26.830Z,2.53
2023-03-08T14:09:29.283Z,1.52
2023-03-08T14:10:43.805Z,1.50
2023-03-08T14:11:54.196Z,2.15
2023-03-08T14:12:57.079Z,1.75
2023-03-08T14:14:02.459Z,2.10
2023-03-08T14:15:07.059Z,3.67
2023-03-08T14:16:24.940Z,1.58
2023-03-08T14:17:31.810Z,2.03
2023-03-08T14:18:38.196Z,1.73
2023-03-08T14:19:41.042Z,2.83
2023-03-08T14:20:43.626Z,3.10
2023-03-08T14:21:55.686Z,2.25
2023-03-08T14:22:58.288Z,2.10
2023-03-08T14:24:06.205Z,3.90
2023-03-08T14:25:31.690Z,3.50
2023-03-08T14:26:39.564Z,3.97
2023-03-08T14:27:45.187Z,3.47
2023-03-08T14:28:48.886Z,4.03
2023-03-08T14:30:02.660Z,3.10
2023-03-08T14:31:27.120Z,3.95
2023-03-08T14:32:32.206Z,3.17
2023-03-08T14:33:42.261Z,5.20